Time;durP1;ratioP1;P1;durP2;ratioP2;P2;SDS_P1;SDS_P2;PMS_P1;PMS_P2;Temp;Humidity;BMP_temperature;BMP_pressure;BME280_temperature;BME280_humidity;BME280_pressure;Samples;Min_cycle;Max_cycle;Signal;HPM_P1;HPM_P2
2021/08/14 00:00:04;;;;;;;8.78;6.85;;;;;;;20.10;57.39;101365.31;1814159;79;21074;-80
2021/08/14 00:02:31;;;;;;;12.05;7.58;;;;;;;20.12;57.36;101364.86;1814150;79;20987;-80
2021/08/14 00:04:58;;;;;;;13.90;11.70;;;;;;;20.13;57.38;101353.28;1814186;79;21053;-79
2021/08/14 00:07:24;;;;;;;13.15;7.33;;;;;;;20.13;57.33;101339.47;1814343;79;21736;-79
2021/08/14 00:09:51;;;;;;;11.10;8.20;;;;;;;20.13;57.35;101342.59;1810283;79;21070;-79
2021/08/14 00:12:18;;;;;;;13.05;7.80;;;;;;;20.13;57.39;101342.14;1815016;78;21117;-79
2021/08/14 00:14:47;;;;;;;13.18;8.63;;;;;;;20.13;57.39;101346.60;1814375;79;21093;-80
2021/08/14 00:17:17;;;;;;;13.35;7.83;;;;;;;20.12;57.40;101345.72;1809912;78;21077;-80
2021/08/14 00:19:45;;;;;;;10.30;7.72;;;;;;;20.11;57.41;101341.26;1812234;79;21086;-80
2021/08/14 00:22:14;;;;;;;9.65;7.53;;;;;;;20.10;57.42;101339.50;1813961;78;21042;-80
2021/08/14 00:24:44;;;;;;;12.70;8.35;;;;;;;20.09;57.46;101343.52;1816296;78;21618;-80
2021/08/14 00:27:11;;;;;;;9.63;7.65;;;;;;;20.10;57.47;101347.94;1814218;78;21098;-80
2021/08/14 00:29:38;;;;;;;17.02;8.40;;;;;;;20.10;57.52;101342.59;1813139;78;21504;-80
2021/08/14 00:32:06;;;;;;;11.18;8.38;;;;;;;20.12;57.55;101337.70;1789984;78;21054;-80
2021/08/14 00:34:34;;;;;;;8.90;7.65;;;;;;;20.15;57.54;101334.12;1816565;78;21541;-80
2021/08/14 00:37:01;;;;;;;13.32;8.60;;;;;;;20.17;57.56;101330.98;1813202;79;21007;-80
2021/08/14 00:39:29;;;;;;;14.85;8.15;;;;;;;20.19;57.53;101323.38;1811763;79;21774;-80
2021/08/14 00:41:59;;;;;;;12.07;7.62;;;;;;;20.20;57.51;101322.50;1814085;78;21501;-80
2021/08/14 00:44:24;;;;;;;11.95;9.00;;;;;;;20.22;57.53;101319.83;1812802;78;21663;-80
2021/08/14 00:46:51;;;;;;;11.53;8.05;;;;;;;20.23;57.51;101309.55;1814233;79;21062;-80
2021/08/14 00:49:18;;;;;;;10.80;8.08;;;;;;;20.25;57.54;101313.56;1813048;78;21386;-80
2021/08/14 00:51:44;;;;;;;9.40;7.42;;;;;;;20.27;57.53;101315.77;1811867;78;21035;-80
2021/08/14 00:54:11;;;;;;;8.15;7.35;;;;;;;20.28;57.49;101309.09;1812715;79;21074;-80
2021/08/14 00:56:38;;;;;;;10.63;7.87;;;;;;;20.30;57.48;101312.64;1814102;79;22617;-80
2021/08/14 00:59:06;;;;;;;9.03;8.05;;;;;;;20.31;57.47;101311.75;1814179;79;21566;-80
2021/08/14 01:01:34;;;;;;;10.58;7.78;;;;;;;20.32;57.47;101308.63;1810411;79;21109;-80
2021/08/14 01:04:01;;;;;;;11.28;8.18;;;;;;;20.34;57.47;101308.16;1814007;79;21134;-80
2021/08/14 01:06:28;;;;;;;9.65;8.48;;;;;;;20.34;57.45;101305.03;1786968;79;21092;-81
2021/08/14 01:08:58;;;;;;;12.53;8.50;;;;;;;20.34;57.51;101302.35;1813969;79;21792;-79
2021/08/14 01:11:24;;;;;;;10.82;7.60;;;;;;;20.33;57.47;101310.41;1813837;79;21038;-80
2021/08/14 01:13:50;;;;;;;11.25;8.60;;;;;;;20.31;57.49;101303.73;1813510;79;21529;-80
2021/08/14 01:16:17;;;;;;;11.97;8.30;;;;;;;20.30;57.56;101297.93;1813817;79;21587;-80
2021/08/14 01:18:45;;;;;;;12.40;8.80;;;;;;;20.31;57.62;101299.73;1814657;78;21109;-80
2021/08/14 01:21:22;;;;;;;12.20;8.13;;;;;;;20.32;57.65;101293.46;1819327;78;21796;-80
2021/08/14 01:23:54;;;;;;;9.40;8.43;;;;;;;20.34;57.66;101287.66;1810343;79;21547;-80
2021/08/14 01:26:21;;;;;;;10.93;8.60;;;;;;;20.36;57.63;101286.31;1814189;78;21003;-80
2021/08/14 01:28:48;;;;;;;13.58;8.95;;;;;;;20.38;57.65;101282.75;1815905;78;21058;-80
2021/08/14 01:31:15;;;;;;;11.03;8.90;;;;;;;20.41;57.66;101280.95;1813300;78;21615;-79
2021/08/14 01:33:43;;;;;;;15.72;8.83;;;;;;;20.42;57.65;101278.27;1813560;79;21762;-80
2021/08/14 01:36:11;;;;;;;11.53;8.95;;;;;;;20.42;57.62;101279.61;1815086;78;21521;-79
2021/08/14 01:38:48;;;;;;;10.28;9.03;;;;;;;20.42;57.57;101278.27;1811055;78;21544;-80
2021/08/14 01:41:15;;;;;;;10.60;8.65;;;;;;;20.43;57.62;101281.82;1808141;79;22275;-80
2021/08/14 01:44:02;;;;;;;12.00;8.78;;;;;;;20.43;57.61;101289.38;1817051;78;21050;-80
2021/08/14 01:46:34;;;;;;;11.55;9.05;;;;;;;20.41;57.55;101291.19;1812124;78;21806;-79
2021/08/14 01:49:00;;;;;;;9.98;8.88;;;;;;;20.35;57.54;101289.44;1815960;78;21041;-81
2021/08/14 01:51:32;;;;;;;10.58;8.58;;;;;;;20.28;57.56;101286.36;1813997;78;20995;-80
2021/08/14 01:54:00;;;;;;;10.28;9.28;;;;;;;20.21;57.58;101296.66;1813531;79;21039;-80
2021/08/14 01:56:27;;;;;;;13.78;8.25;;;;;;;20.13;57.63;101292.69;1813257;79;21034;-80
2021/08/14 01:58:54;;;;;;;11.00;9.48;;;;;;;20.06;57.77;101286.06;1813474;78;22822;-80
2021/08/14 02:01:25;;;;;;;11.65;8.35;;;;;;;19.97;57.86;101285.22;1808965;79;21472;-79
2021/08/14 02:03:51;;;;;;;14.13;10.05;;;;;;;19.89;57.97;101286.15;1813435;78;21093;-80
2021/08/14 02:06:22;;;;;;;10.30;7.95;;;;;;;19.83;58.06;101288.40;1813097;79;21555;-80
2021/08/14 02:08:49;;;;;;;9.73;8.70;;;;;;;19.74;58.15;101289.31;1812223;78;21069;-80
2021/08/14 02:11:26;;;;;;;10.00;8.70;;;;;;;19.69;58.36;101284.86;1812219;78;22588;-79
2021/08/14 02:13:53;;;;;;;11.15;8.28;;;;;;;19.63;58.53;101288.44;1814234;78;21046;-80
2021/08/14 02:16:22;;;;;;;12.93;9.60;;;;;;;19.57;58.66;101304.04;1788500;79;21057;-80
2021/08/14 02:18:49;;;;;;;10.40;8.40;;;;;;;19.52;58.79;101298.27;1813888;79;21649;-79
2021/08/14 02:21:16;;;;;;;11.20;8.63;;;;;;;19.45;58.87;101300.09;1812907;79;21077;-79
2021/08/14 02:23:45;;;;;;;13.90;8.83;;;;;;;19.40;59.06;101308.09;1782932;78;21101;-80
2021/08/14 02:26:15;;;;;;;9.70;8.45;;;;;;;19.35;59.26;101302.32;1813733;79;21018;-80
2021/08/14 02:28:44;;;;;;;11.08;9.63;;;;;;;19.29;59.31;101301.89;1813598;79;21554;-80
2021/08/14 02:31:09;;;;;;;13.03;9.33;;;;;;;19.25;59.47;101300.58;1813439;78;21018;-80
2021/08/14 02:33:36;;;;;;;10.40;8.38;;;;;;;19.20;59.45;101298.81;1813843;78;21108;-80
2021/08/14 02:36:04;;;;;;;14.30;8.40;;;;;;;19.17;59.64;101297.48;1814872;78;22613;-80
2021/08/14 02:38:33;;;;;;;11.97;9.45;;;;;;;19.19;59.83;101294.36;1813127;78;21136;-80
2021/08/14 02:41:03;;;;;;;17.57;10.30;;;;;;;19.22;59.93;101295.70;1813577;78;21109;-80
2021/08/14 02:43:30;;;;;;;16.90;8.63;;;;;;;19.25;60.23;101292.58;1814000;79;21039;-80
2021/08/14 02:46:00;;;;;;;12.15;8.70;;;;;;;19.30;60.44;101305.47;1809853;78;21041;-80
2021/08/14 02:48:25;;;;;;;11.50;9.00;;;;;;;19.35;60.57;101307.66;1814491;78;22797;-79
2021/08/14 02:50:52;;;;;;;14.20;8.63;;;;;;;19.37;60.80;101303.20;1811323;79;21062;-80
2021/08/14 02:53:18;;;;;;;10.65;8.98;;;;;;;19.41;61.04;101309.88;1815331;78;21053;-80
2021/08/14 02:55:45;;;;;;;13.03;9.18;;;;;;;19.44;61.50;101311.64;1814079;79;22925;-80
2021/08/14 02:58:12;;;;;;;13.72;9.03;;;;;;;19.47;61.56;101304.09;1816990;78;21093;-80
2021/08/14 03:00:39;;;;;;;12.25;9.68;;;;;;;19.46;61.84;101309.86;1805611;79;22561;-80
2021/08/14 03:03:05;;;;;;;12.03;9.53;;;;;;;19.46;62.17;101309.86;1806930;79;21641;-80
2021/08/14 03:05:36;;;;;;;15.15;9.58;;;;;;;19.47;62.33;101316.11;1809023;78;21082;-80
2021/08/14 03:08:01;;;;;;;14.68;9.45;;;;;;;19.46;62.49;101316.98;1812946;79;21555;-80
2021/08/14 03:10:28;;;;;;;14.65;9.45;;;;;;;19.44;62.75;101320.99;1812032;78;21093;-80
2021/08/14 03:12:55;;;;;;;13.60;8.58;;;;;;;19.45;63.12;101317.90;1813259;78;22205;-80
2021/08/14 03:15:21;;;;;;;14.98;9.45;;;;;;;19.46;63.28;101318.32;1813747;79;21045;-80
2021/08/14 03:17:52;;;;;;;11.33;8.83;;;;;;;19.46;63.36;101326.33;1801626;79;21047;-80
2021/08/14 03:20:18;;;;;;;9.53;7.62;;;;;;;19.44;63.51;101325.00;1789084;78;21206;-79
2021/08/14 03:22:45;;;;;;;11.75;8.18;;;;;;;19.45;63.59;101325.45;1812922;78;21527;-79
2021/08/14 03:25:12;;;;;;;10.25;7.92;;;;;;;19.46;63.58;101343.69;1814008;79;21691;-80
2021/08/14 03:27:39;;;;;;;12.30;7.67;;;;;;;19.47;63.52;101328.13;1813947;79;21050;-79
2021/08/14 03:30:08;;;;;;;7.70;6.90;;;;;;;19.47;63.48;101330.34;1818058;78;21025;-79
2021/08/14 03:32:34;;;;;;;10.80;7.15;;;;;;;19.47;63.31;101322.33;1814002;79;21580;-79
2021/08/14 03:35:01;;;;;;;8.80;5.62;;;;;;;19.48;63.10;101329.43;1810290;79;21496;-79
2021/08/14 03:37:28;;;;;;;6.78;5.20;;;;;;;19.49;62.71;101337.02;1814728;78;21906;-79
2021/08/14 03:39:55;;;;;;;8.60;5.85;;;;;;;19.51;62.53;101338.78;1815469;78;21083;-78
2021/08/14 03:42:24;;;;;;;7.75;5.65;;;;;;;19.55;62.38;101335.66;1815234;78;21057;-79
2021/08/14 03:44:50;;;;;;;9.53;5.42;;;;;;;19.58;62.14;101336.54;1814152;78;21077;-80
2021/08/14 03:47:17;;;;;;;7.67;5.10;;;;;;;19.61;61.80;101351.66;1810257;79;20998;-79
2021/08/14 03:49:44;;;;;;;11.83;5.10;;;;;;;19.68;61.76;101353.88;1814249;79;22743;-79
2021/08/14 03:52:13;;;;;;;7.42;5.40;;;;;;;19.87;61.62;101349.39;1814108;79;21125;-79
2021/08/14 03:54:43;;;;;;;7.42;4.78;;;;;;;20.07;61.41;101354.66;1813431;79;21054;-79
2021/08/14 03:57:09;;;;;;;8.65;4.90;;;;;;;20.24;61.05;101352.78;1814000;79;21836;-79
2021/08/14 03:59:36;;;;;;;7.35;5.15;;;;;;;20.36;60.83;101350.05;1809266;79;21054;-80
2021/08/14 04:02:05;;;;;;;10.23;5.65;;;;;;;20.40;60.74;101349.55;1812362;78;21046;-79
2021/08/14 04:04:32;;;;;;;7.50;5.55;;;;;;;20.40;60.72;101350.89;1813381;78;20991;-78
2021/08/14 04:07:01;;;;;;;7.65;5.55;;;;;;;20.38;60.84;101352.69;1810551;79;21019;-79
2021/08/14 04:09:27;;;;;;;9.63;5.72;;;;;;;20.38;61.09;101352.27;1815055;78;21011;-79
2021/08/14 04:11:54;;;;;;;7.62;6.03;;;;;;;20.48;61.29;101352.21;1814398;78;21053;-80
2021/08/14 04:14:20;;;;;;;8.38;5.60;;;;;;;20.54;61.35;101356.17;1813312;78;21785;-79
2021/08/14 04:16:47;;;;;;;8.45;5.62;;;;;;;20.58;61.45;101364.16;1809499;78;21027;-79
2021/08/14 04:19:14;;;;;;;9.85;5.60;;;;;;;20.69;61.53;101365.92;1813811;79;21022;-79
2021/08/14 04:21:41;;;;;;;8.83;5.67;;;;;;;20.88;61.64;101360.86;1813018;79;21140;-79
2021/08/14 04:24:12;;;;;;;10.38;5.60;;;;;;;21.03;61.36;101362.98;1812034;78;21070;-79
2021/08/14 04:26:37;;;;;;;9.23;6.25;;;;;;;20.97;61.17;101355.89;1813576;79;22794;-79
2021/08/14 04:29:04;;;;;;;8.68;5.78;;;;;;;20.91;61.29;101367.95;1815856;78;20991;-79
2021/08/14 04:31:30;;;;;;;8.10;5.22;;;;;;;20.94;61.43;101369.28;1812132;79;21058;-80
2021/08/14 04:33:57;;;;;;;11.08;5.83;;;;;;;21.01;61.50;101365.66;1804171;79;21607;-79
2021/08/14 04:36:24;;;;;;;11.22;5.87;;;;;;;21.18;61.57;101365.52;1812865;79;21019;-80
2021/08/14 04:38:51;;;;;;;8.23;4.87;;;;;;;21.27;61.30;101361.88;1813760;79;21935;-79
2021/08/14 04:41:18;;;;;;;7.62;5.10;;;;;;;21.33;61.29;101365.36;1813942;79;21034;-79
2021/08/14 04:43:54;;;;;;;10.23;5.37;;;;;;;21.41;61.16;101366.63;1811341;78;21490;-81
2021/08/14 04:46:23;;;;;;;7.05;4.50;;;;;;;21.56;61.27;101369.63;1731556;78;21848;-80
2021/08/14 04:48:49;;;;;;;7.95;4.78;;;;;;;21.99;61.30;101374.96;1817956;78;21059;-81
2021/08/14 04:51:16;;;;;;;7.60;5.50;;;;;;;22.21;60.53;101371.09;1812548;78;21762;-79
2021/08/14 04:53:43;;;;;;;11.35;5.75;;;;;;;22.26;60.25;101369.71;1814226;79;21659;-79
2021/08/14 04:56:10;;;;;;;9.20;5.72;;;;;;;22.24;60.07;101383.13;1814125;79;21187;-79
2021/08/14 04:58:37;;;;;;;7.05;5.40;;;;;;;22.25;60.12;101382.67;1813980;79;21054;-79
2021/08/14 05:01:05;;;;;;;6.87;5.20;;;;;;;22.29;60.13;101391.14;1815389;78;21045;-81
2021/08/14 05:03:32;;;;;;;10.08;5.87;;;;;;;22.37;60.15;101393.25;1812879;79;21886;-79
2021/08/14 05:06:01;;;;;;;8.45;5.40;;;;;;;22.45;59.95;101396.73;1812462;78;21066;-80
2021/08/14 05:08:38;;;;;;;6.90;4.97;;;;;;;22.48;59.88;101391.30;1812830;79;21331;-79
2021/08/14 05:11:04;;;;;;;9.28;4.75;;;;;;;22.61;59.89;101392.02;1813136;79;21047;-80
2021/08/14 05:13:32;;;;;;;11.83;5.05;;;;;;;22.84;59.68;101396.14;1813972;79;20987;-79
2021/08/14 05:15:59;;;;;;;9.55;5.12;;;;;;;22.84;59.24;101393.47;1808330;79;21784;-79
2021/08/14 05:18:30;;;;;;;8.85;4.80;;;;;;;22.88;59.27;101393.41;1812025;79;21046;-79
2021/08/14 05:20:55;;;;;;;7.08;3.95;;;;;;;23.08;59.28;101400.27;1814647;78;21441;-79
2021/08/14 05:23:21;;;;;;;9.50;4.50;;;;;;;23.28;58.92;101393.23;1815492;78;21066;-79
2021/08/14 05:25:49;;;;;;;10.72;4.60;;;;;;;23.27;58.28;101399.07;1814094;78;21051;-79
2021/08/14 05:28:15;;;;;;;8.63;4.33;;;;;;;23.28;58.29;101408.01;1811554;78;22684;-79
2021/08/14 05:30:45;;;;;;;6.40;4.05;;;;;;;23.49;58.29;101410.77;1813589;79;21042;-79
2021/08/14 05:33:10;;;;;;;8.75;4.45;;;;;;;23.82;57.97;101420.03;1813337;79;21132;-80
2021/08/14 05:35:37;;;;;;;9.25;4.47;;;;;;;24.17;57.60;101421.58;1810197;78;21670;-80
2021/08/14 05:38:04;;;;;;;7.72;4.10;;;;;;;24.28;57.04;101399.37;1812764;79;21081;-79
2021/08/14 05:40:38;;;;;;;6.55;3.87;;;;;;;24.47;56.53;101411.08;1812105;79;21817;-82
2021/08/14 05:43:08;;;;;;;6.12;3.95;;;;;;;24.37;56.45;101413.09;1802981;78;20999;-79
2021/08/14 05:45:36;;;;;;;8.40;3.98;;;;;;;24.22;55.96;101415.66;1816864;78;21085;-80
2021/08/14 05:48:08;;;;;;;10.78;4.12;;;;;;;24.00;55.90;101417.89;1813650;78;21062;-80
2021/08/14 05:50:34;;;;;;;10.20;3.67;;;;;;;23.91;56.13;101412.22;1815380;78;21050;-80
2021/08/14 05:53:01;;;;;;;5.97;3.85;;;;;;;23.79;55.85;101412.02;1813439;79;21874;-80
2021/08/14 05:55:34;;;;;;;8.70;4.00;;;;;;;23.71;56.06;101417.98;1813050;79;21117;-80
2021/08/14 05:58:13;;;;;;;9.80;3.87;;;;;;;23.77;56.02;101427.73;1812199;78;21034;-80
2021/08/14 06:00:41;;;;;;;8.50;3.98;;;;;;;23.78;56.02;101422.76;1804232;78;21745;-80
2021/08/14 06:03:16;;;;;;;9.25;4.08;;;;;;;23.82;56.03;101428.10;1812291;79;21054;-80
2021/08/14 06:05:47;;;;;;;6.53;3.58;;;;;;;23.78;55.43;101433.08;1787610;79;21097;-79
2021/08/14 06:11:31;;;;;;;8.00;3.50;;;;;;;23.95;55.72;101433.22;1805703;78;21082;-82
2021/08/14 06:17:36;;;;;;;7.55;2.90;;;;;;;24.13;55.00;101432.85;1659927;82;21607;-84
2021/08/14 06:20:04;;;;;;;10.28;3.50;;;;;;;24.31;54.73;101434.76;1767473;80;21789;-84
2021/08/14 06:22:35;;;;;;;10.58;3.92;;;;;;;24.30;54.36;101440.58;1749944;80;21480;-85
2021/08/14 06:25:03;;;;;;;4.40;2.77;;;;;;;24.36;54.14;101443.59;1776224;80;21038;-84
2021/08/14 06:27:31;;;;;;;7.17;3.52;;;;;;;24.40;54.02;101441.25;1775455;80;21023;-85
2021/08/14 06:30:00;;;;;;;12.95;3.35;;;;;;;24.43;53.73;101450.63;1775604;80;21090;-85
2021/08/14 06:32:27;;;;;;;6.67;3.25;;;;;;;24.62;53.36;101463.25;1775522;80;21777;-85
2021/08/14 06:35:08;;;;;;;7.90;3.62;;;;;;;24.73;53.15;101456.28;1742663;80;21137;-86
2021/08/14 06:40:24;;;;;;;7.43;3.67;;;;;;;24.95;52.57;101457.56;1752621;80;21137;-85
2021/08/14 06:43:17;;;;;;;10.28;3.58;;;;;;;25.16;52.33;101455.27;1771080;80;21550;-85
2021/08/14 06:45:56;;;;;;;8.73;3.77;;;;;;;25.27;51.91;101445.15;1754084;80;21038;-85
2021/08/14 06:48:23;;;;;;;13.70;4.17;;;;;;;25.38;51.43;101448.45;1769559;80;21030;-84
2021/08/14 06:50:50;;;;;;;8.85;3.60;;;;;;;25.36;51.00;101452.12;1770353;79;21066;-84
2021/08/14 06:53:19;;;;;;;13.20;3.77;;;;;;;25.31;50.50;101460.31;1813410;78;21034;-84
2021/08/14 06:55:49;;;;;;;9.28;3.47;;;;;;;25.12;50.14;101456.28;1813938;78;21040;-85
2021/08/14 06:58:14;;;;;;;10.60;4.40;;;;;;;24.97;49.86;101453.02;1813826;79;21927;-84
2021/08/14 07:00:41;;;;;;;10.32;4.10;;;;;;;24.75;49.76;101453.97;1813982;79;21069;-86
2021/08/14 07:03:08;;;;;;;9.93;4.37;;;;;;;24.67;49.83;101453.27;1812362;79;33597;-84
2021/08/14 07:05:41;;;;;;;8.70;4.03;;;;;;;24.58;49.77;101460.20;1810191;79;21619;-84
2021/08/14 07:08:07;;;;;;;10.30;3.62;;;;;;;24.54;49.66;101458.03;1804414;78;21087;-85
2021/08/14 07:10:34;;;;;;;8.13;3.75;;;;;;;24.49;49.41;101459.02;1810848;78;21951;-85
2021/08/14 07:13:02;;;;;;;5.78;2.72;;;;;;;24.39;49.40;101458.34;1809343;79;21109;-86
2021/08/14 07:15:30;;;;;;;10.98;3.52;;;;;;;24.36;49.57;101457.05;1813297;78;21571;-84
2021/08/14 07:17:59;;;;;;;8.95;3.60;;;;;;;24.44;49.73;101461.36;1814203;79;21066;-84
2021/08/14 07:20:29;;;;;;;7.58;3.47;;;;;;;24.47;49.56;101455.02;1814472;79;21082;-85
2021/08/14 07:22:55;;;;;;;14.35;3.60;;;;;;;24.51;49.39;101455.83;1812472;78;21983;-84
2021/08/14 07:25:22;;;;;;;10.43;4.62;;;;;;;24.57;49.09;101454.37;1814176;79;21094;-85
2021/08/14 07:27:49;;;;;;;8.95;3.62;;;;;;;24.46;48.95;101449.22;1807629;78;21090;-84
2021/08/14 07:30:16;;;;;;;12.70;3.70;;;;;;;24.25;49.13;101440.69;1803783;79;21587;-84
2021/08/14 07:32:45;;;;;;;10.55;3.17;;;;;;;24.25;49.13;101440.69;1812407;78;21030;-84
2021/08/14 07:35:11;;;;;;;10.20;4.83;;;;;;;24.32;49.06;101460.72;1813916;78;21748;-85
2021/08/14 07:37:49;;;;;;;8.20;3.08;;;;;;;24.29;48.97;101468.84;1812940;78;21116;-85
2021/08/14 07:40:19;;;;;;;7.03;3.27;;;;;;;24.18;48.99;101465.06;1802432;78;21532;-85
2021/08/14 07:42:48;;;;;;;11.48;3.60;;;;;;;24.05;48.79;101468.45;1810030;79;21050;-85
2021/08/14 07:45:17;;;;;;;9.45;3.00;;;;;;;23.92;49.28;101471.82;1815466;78;21050;-85
2021/08/14 07:47:47;;;;;;;6.72;2.77;;;;;;;24.02;49.51;101469.84;1812372;79;21746;-85
2021/08/14 07:50:14;;;;;;;10.03;3.67;;;;;;;24.13;49.40;101468.29;1814087;79;21015;-85
2021/08/14 07:52:41;;;;;;;10.93;3.52;;;;;;;24.29;49.06;101476.92;1812822;78;21110;-84
2021/08/14 07:55:08;;;;;;;16.25;4.95;;;;;;;24.35;48.72;101483.55;1814050;79;20991;-85
2021/08/14 07:57:39;;;;;;;10.93;3.00;;;;;;;24.37;48.66;101483.05;1817055;78;21121;-85
2021/08/14 08:00:13;;;;;;;13.32;4.12;;;;;;;24.39;48.60;101476.70;1815198;78;21039;-85
2021/08/14 08:02:38;;;;;;;9.33;3.45;;;;;;;24.52;48.43;101493.98;1813473;79;21042;-85
2021/08/14 08:05:07;;;;;;;11.20;3.15;;;;;;;24.62;48.34;101483.44;1802625;79;21536;-85
2021/08/14 08:07:37;;;;;;;14.18;3.05;;;;;;;24.72;48.31;101476.03;1815344;78;21097;-85
2021/08/14 08:10:08;;;;;;;9.95;3.15;;;;;;;24.70;47.99;101468.45;1814177;79;21094;-85
2021/08/14 08:12:35;;;;;;;9.95;3.60;;;;;;;24.76;47.84;101471.91;1812994;79;21758;-84
2021/08/14 08:15:01;;;;;;;9.43;3.52;;;;;;;24.67;47.42;101477.97;1811625;79;21077;-84
2021/08/14 08:17:28;;;;;;;16.10;4.25;;;;;;;24.54;47.60;101470.14;1809833;78;21043;-85
2021/08/14 08:19:55;;;;;;;20.55;4.30;;;;;;;24.45;47.81;101467.62;1814948;78;21125;-85
2021/08/14 08:22:22;;;;;;;8.88;3.60;;;;;;;24.39;48.01;101470.45;1814256;79;21018;-85
2021/08/14 08:24:49;;;;;;;12.90;4.10;;;;;;;24.36;48.07;101467.81;1814123;79;21736;-85
2021/08/14 08:27:15;;;;;;;11.90;5.55;;;;;;;24.26;48.02;101474.72;1814170;79;21602;-85
2021/08/14 08:29:42;;;;;;;12.73;5.40;;;;;;;24.22;48.14;101473.02;1817248;78;21102;-85
2021/08/14 08:32:09;;;;;;;8.53;4.92;;;;;;;24.24;47.85;101483.75;1810946;79;21071;-84
2021/08/14 08:34:36;;;;;;;9.33;4.67;;;;;;;24.03;47.20;101479.22;1815342;78;21128;-85
2021/08/14 08:37:03;;;;;;;9.10;4.40;;;;;;;23.89;47.33;101470.99;1816376;78;21790;-85
2021/08/14 08:39:32;;;;;;;7.22;3.15;;;;;;;23.84;47.53;101477.81;1813085;79;21046;-84
2021/08/14 08:42:01;;;;;;;11.68;4.12;;;;;;;23.86;47.85;101467.45;1810739;78;21030;-85
2021/08/14 08:44:27;;;;;;;9.40;3.08;;;;;;;23.95;47.79;101482.97;1784979;79;21221;-85
2021/08/14 08:46:56;;;;;;;12.95;3.55;;;;;;;23.94;47.72;101475.37;1811538;78;21646;-85
2021/08/14 08:49:26;;;;;;;11.55;4.35;;;;;;;23.98;47.83;101472.16;1809623;78;22509;-85
2021/08/14 08:51:52;;;;;;;11.33;3.42;;;;;;;24.04;47.46;101485.05;1812075;79;21062;-80
2021/08/14 08:54:23;;;;;;;9.78;3.33;;;;;;;24.13;47.26;101495.19;1815964;78;21034;-80
2021/08/14 08:56:58;;;;;;;13.80;3.60;;;;;;;24.18;47.02;101494.64;1813201;78;21101;-80
2021/08/14 08:59:24;;;;;;;7.80;2.83;;;;;;;24.26;47.05;101484.14;1813860;78;21070;-80
2021/08/14 09:01:56;;;;;;;8.63;2.70;;;;;;;24.38;47.14;101474.04;1814349;79;21731;-80
2021/08/14 09:04:34;;;;;;;11.78;2.67;;;;;;;24.53;47.01;101473.78;1812374;79;21110;-79
2021/08/14 09:07:00;;;;;;;12.25;3.02;;;;;;;24.67;46.56;101479.31;1811522;79;21536;-79
2021/08/14 09:09:33;;;;;;;10.63;3.00;;;;;;;24.79;46.44;101470.48;1815729;78;21575;-80
2021/08/14 09:12:03;;;;;;;13.05;4.55;;;;;;;24.86;46.23;101477.09;1809966;79;21074;-80
2021/08/14 09:14:48;;;;;;;15.20;4.85;;;;;;;24.88;46.09;101472.55;1812853;78;21776;-80
2021/08/14 09:17:15;;;;;;;12.13;4.12;;;;;;;24.87;45.73;101473.02;1813313;79;21172;-80
2021/08/14 09:19:41;;;;;;;7.47;3.50;;;;;;;24.87;45.71;101482.45;1815992;78;21070;-80
2021/08/14 09:22:14;;;;;;;11.68;3.62;;;;;;;24.90;45.39;101478.78;1813269;78;21205;-80
2021/08/14 09:24:41;;;;;;;11.95;2.92;;;;;;;24.94;45.23;101478.66;1813772;79;21628;-80
2021/08/14 09:27:11;;;;;;;6.60;2.52;;;;;;;25.01;44.84;101482.99;1813824;78;22715;-81
2021/08/14 09:29:39;;;;;;;11.40;3.60;;;;;;;25.05;44.54;101477.55;1814132;79;21088;-79
2021/08/14 09:32:14;;;;;;;6.85;2.95;;;;;;;25.09;44.48;101492.70;1814153;79;20976;-81
2021/08/14 09:34:43;;;;;;;7.42;3.20;;;;;;;25.09;44.51;101492.23;1813558;79;21043;-79
2021/08/14 09:37:12;;;;;;;7.28;2.87;;;;;;;25.08;44.03;101491.83;1814125;79;21038;-79
2021/08/14 09:40:11;;;;;;;;;;;;;;;;;;;;;
2021/08/14 09:42:30;;;;;;;9.00;3.10;;;;;;;25.10;43.63;101493.14;1811533;79;21602;-80
2021/08/14 09:45:17;;;;;;;9.88;3.70;;;;;;;25.25;43.48;101490.11;1814086;79;21070;-80
2021/08/14 09:47:49;;;;;;;8.78;3.20;;;;;;;25.40;43.25;101497.81;1814957;78;21556;-79
2021/08/14 09:50:15;;;;;;;10.13;3.37;;;;;;;25.58;43.09;101493.78;1813792;79;21617;-79
2021/08/14 09:52:44;;;;;;;6.22;3.33;;;;;;;25.75;43.00;101496.03;1812677;79;22605;-80
2021/08/14 09:55:26;;;;;;;7.40;2.83;;;;;;;25.90;42.60;101501.48;1811187;79;21557;-83
2021/08/14 09:58:03;;;;;;;12.53;3.80;;;;;;;25.97;42.34;101507.61;1811451;79;21081;-81
2021/08/14 10:00:32;;;;;;;16.20;3.40;;;;;;;25.89;42.00;101501.05;1811732;79;21019;-79
2021/08/14 10:03:00;;;;;;;12.82;3.25;;;;;;;25.93;41.86;101494.67;1814246;79;21055;-79
2021/08/14 10:05:27;;;;;;;9.63;3.58;;;;;;;26.04;41.79;101505.17;1789385;79;21757;-81
2021/08/14 10:07:54;;;;;;;10.03;3.40;;;;;;;26.11;41.54;101500.47;1810013;79;21516;-81
2021/08/14 10:10:25;;;;;;;9.10;3.05;;;;;;;26.04;41.30;101499.78;1787901;79;21046;-79
2021/08/14 10:12:52;;;;;;;11.63;3.75;;;;;;;25.88;41.07;101506.47;1813778;79;22305;-80
2021/08/14 10:15:19;;;;;;;9.03;2.83;;;;;;;25.72;41.12;101510.93;1813926;79;21093;-79
2021/08/14 10:17:46;;;;;;;7.40;2.60;;;;;;;25.65;41.40;101516.53;1810368;78;22453;-79
2021/08/14 10:20:13;;;;;;;8.93;3.15;;;;;;;25.64;41.34;101518.34;1813614;79;21579;-80
2021/08/14 10:22:40;;;;;;;11.33;3.12;;;;;;;25.65;41.37;101511.13;1811276;78;21121;-80
2021/08/14 10:25:11;;;;;;;13.30;3.50;;;;;;;25.72;41.31;101508.70;1813184;79;21054;-80
2021/08/14 10:28:00;;;;;;;8.05;3.10;;;;;;;25.70;40.97;101517.30;1786736;79;21606;-81
2021/08/14 10:30:50;;;;;;;13.08;3.33;;;;;;;25.52;40.72;101511.43;1808785;79;22579;-80
2021/08/14 10:33:35;;;;;;;9.70;3.67;;;;;;;25.37;40.70;101509.13;1814385;78;20976;-80
2021/08/14 10:36:21;;;;;;;9.68;3.70;;;;;;;25.44;40.77;101512.56;1813361;79;21445;-80
2021/08/14 10:38:52;;;;;;;11.43;3.40;;;;;;;25.47;40.56;101515.16;1787842;79;21058;-80
2021/08/14 10:41:19;;;;;;;10.43;3.15;;;;;;;25.46;40.42;101518.33;1815636;78;21050;-81
2021/08/14 10:43:59;;;;;;;10.35;3.42;;;;;;;25.42;40.60;101519.34;1815479;78;21320;-80
2021/08/14 10:46:54;;;;;;;9.95;4.08;;;;;;;25.49;40.63;101524.09;1812258;78;21465;-81
2021/08/14 10:49:31;;;;;;;13.55;4.33;;;;;;;25.57;40.65;101516.25;1813219;78;21043;-81
2021/08/14 10:52:08;;;;;;;12.55;4.67;;;;;;;25.69;40.55;101520.44;1808366;79;21534;-80
2021/08/14 10:54:57;;;;;;;7.72;3.58;;;;;;;25.84;40.35;101531.29;1816115;78;21784;-81
2021/08/14 10:57:48;;;;;;;7.65;3.47;;;;;;;25.76;40.35;101516.66;1811724;79;21669;-80
2021/08/14 11:00:23;;;;;;;11.08;3.35;;;;;;;25.62;39.79;101513.46;1812922;79;21046;-81
2021/08/14 11:03:07;;;;;;;11.55;4.05;;;;;;;25.56;39.93;101505.50;1789353;79;21587;-80
2021/08/14 11:05:43;;;;;;;8.48;3.12;;;;;;;25.62;39.85;101513.46;1813834;79;21179;-80
2021/08/14 11:08:27;;;;;;;12.45;3.98;;;;;;;25.58;39.65;101514.44;1806886;79;21026;-80
2021/08/14 11:10:55;;;;;;;;;;;;;;;25.54;39.81;101515.44;1814531;78;21741;-80
2021/08/14 11:13:37;;;;;;;13.83;6.92;;;;;;;25.68;40.19;101515.11;1800657;78;20216;-80
2021/08/14 11:16:04;;;;;;;12.98;5.47;;;;;;;25.96;40.05;101519.34;1814763;78;21618;-80
2021/08/14 11:18:51;;;;;;;18.52;5.83;;;;;;;26.27;39.91;101519.36;1809738;79;21023;-80
2021/08/14 11:21:20;;;;;;;8.43;3.85;;;;;;;26.52;39.59;101511.91;1813267;79;21618;-80
2021/08/14 11:23:59;;;;;;;12.80;4.75;;;;;;;26.84;39.37;101510.99;1810348;78;21762;-80
2021/08/14 11:26:38;;;;;;;14.05;5.83;;;;;;;27.04;38.72;101502.23;1814666;78;21638;-80
2021/08/14 11:29:06;;;;;;;9.33;3.72;;;;;;;27.26;38.30;101500.25;1815279;78;21054;-80
2021/08/14 11:31:33;;;;;;;6.85;3.08;;;;;;;27.40;38.17;101505.19;1813355;79;21185;-80
2021/08/14 11:34:13;;;;;;;11.15;3.95;;;;;;;27.48;37.79;101505.80;1813629;79;21058;-80
2021/08/14 11:36:41;;;;;;;14.43;4.85;;;;;;;27.53;37.70;101507.89;1813342;79;21762;-80
2021/08/14 11:39:08;;;;;;;7.28;3.40;;;;;;;27.59;37.47;101501.39;1813464;79;21018;-79
2021/08/14 11:41:35;;;;;;;9.85;3.02;;;;;;;27.72;37.58;101502.73;1813872;78;21539;-80